createdAt,value
2018-07-13T00:00:17.862Z,19.17
2018-07-13T00:01:18.274Z,19.23
2018-07-13T00:02:18.716Z,19.13
2018-07-13T00:03:17.750Z,19.23
2018-07-13T00:04:17.782Z,19.15
2018-07-13T00:05:17.705Z,19.30
2018-07-13T00:06:17.681Z,19.25
2018-07-13T00:07:17.662Z,19.24
2018-07-13T00:08:17.633Z,19.24
2018-07-13T00:09:17.785Z,19.27
2018-07-13T00:10:17.586Z,19.27
2018-07-13T00:11:17.564Z,19.27
2018-07-13T00:12:17.536Z,19.24
2018-07-13T00:13:18.221Z,19.28
2018-07-13T00:14:17.537Z,19.25
2018-07-13T00:15:17.468Z,19.28
2018-07-13T00:16:17.451Z,19.24
2018-07-13T00:17:17.775Z,19.32
2018-07-13T00:18:17.398Z,19.30
2018-07-13T00:19:17.372Z,19.27
2018-07-13T00:20:18.222Z,19.24
2018-07-13T00:21:17.372Z,19.28
2018-07-13T00:22:17.344Z,19.23
2018-07-13T00:23:18.223Z,19.28
2018-07-13T00:24:17.261Z,19.27
2018-07-13T00:25:17.234Z,19.27
2018-07-13T00:26:17.728Z,19.27
2018-07-13T00:27:17.232Z,19.27
2018-07-13T00:28:17.168Z,19.24
2018-07-13T00:29:17.143Z,19.15
2018-07-13T00:30:17.721Z,19.17
2018-07-13T00:31:17.097Z,19.16
2018-07-13T00:32:17.116Z,19.12
2018-07-13T00:33:17.111Z,19.02
2018-07-13T00:34:17.033Z,19.10
2018-07-13T00:35:17.729Z,19.10
2018-07-13T00:36:16.979Z,19.09
2018-07-13T00:37:16.955Z,19.05
2018-07-13T00:38:17.292Z,19.10
2018-07-13T00:39:16.909Z,19.06
2018-07-13T00:40:17.726Z,19.05
2018-07-13T00:41:16.861Z,19.10
2018-07-13T00:42:16.841Z,19.05
2018-07-13T00:43:17.293Z,18.97
2018-07-13T00:44:16.796Z,19.02
2018-07-13T00:45:16.772Z,19.05
2018-07-13T00:46:17.728Z,19.09
2018-07-13T00:47:16.722Z,18.99
2018-07-13T00:48:16.752Z,18.99
2018-07-13T00:49:16.675Z,18.96
2018-07-13T00:50:16.655Z,18.96
2018-07-13T00:51:17.232Z,18.93
2018-07-13T00:52:16.604Z,18.90
2018-07-13T00:53:16.645Z,18.87
2018-07-13T00:54:16.783Z,18.79
2018-07-13T00:55:16.579Z,18.86
2018-07-13T00:56:16.510Z,18.86
2018-07-13T00:57:17.233Z,18.74
2018-07-13T00:58:16.470Z,18.66
2018-07-13T00:59:16.784Z,18.72
2018-07-13T01:00:16.459Z,18.65
2018-07-13T01:01:16.394Z,18.66
2018-07-13T01:02:17.234Z,18.61
2018-07-13T01:03:16.352Z,18.49
2018-07-13T01:04:16.323Z,18.49
2018-07-13T01:05:16.339Z,18.38
2018-07-13T01:06:16.276Z,18.31
2018-07-13T01:07:16.787Z,18.23
2018-07-13T01:08:16.230Z,18.24
2018-07-13T01:09:16.286Z,18.19
2018-07-13T01:10:16.185Z,18.16
2018-07-13T01:11:16.736Z,18.13
2018-07-13T01:12:16.134Z,18.13
2018-07-13T01:13:16.110Z,18.08
2018-07-13T01:14:16.288Z,18.11
2018-07-13T01:15:16.061Z,18.11
2018-07-13T01:16:16.735Z,18.08
2018-07-13T01:17:16.034Z,18.01
2018-07-13T01:18:16.038Z,18.05
2018-07-13T01:19:15.964Z,18.01
2018-07-13T01:20:15.946Z,18.03
2018-07-13T01:21:16.737Z,17.95
2018-07-13T01:22:15.895Z,17.96
2018-07-13T01:23:16.318Z,18.01
2018-07-13T01:24:15.853Z,17.86
2018-07-13T01:25:15.822Z,17.84
2018-07-13T01:26:16.737Z,17.80
2018-07-13T01:27:15.776Z,17.81
2018-07-13T01:28:15.796Z,17.81
2018-07-13T01:29:15.767Z,17.81
2018-07-13T01:30:16.238Z,17.77
2018-07-13T01:31:15.686Z,17.71
2018-07-13T01:32:15.653Z,17.71
2018-07-13T01:33:15.667Z,17.63
2018-07-13T01:34:15.605Z,17.68
2018-07-13T01:35:15.624Z,17.73
2018-07-13T01:36:16.240Z,17.62
2018-07-13T01:37:15.536Z,17.50
2018-07-13T01:38:15.509Z,17.47
2018-07-13T01:39:15.484Z,17.54
2018-07-13T01:40:15.500Z,17.52
2018-07-13T01:41:15.792Z,17.45
2018-07-13T01:42:15.460Z,17.38
2018-07-13T01:43:15.387Z,17.39
2018-07-13T01:44:15.361Z,17.31
2018-07-13T01:45:15.337Z,17.27
2018-07-13T01:46:16.240Z,17.27
2018-07-13T01:47:15.355Z,17.15
2018-07-13T01:48:15.264Z,17.07
2018-07-13T01:49:15.745Z,17.05
2018-07-13T01:50:15.217Z,17.05
2018-07-13T01:51:15.191Z,17.00
2018-07-13T01:52:15.296Z,16.91
2018-07-13T01:53:15.144Z,16.95
2018-07-13T01:54:15.743Z,16.94
2018-07-13T01:55:15.093Z,16.84
2018-07-13T01:56:15.741Z,16.92
2018-07-13T01:57:15.103Z,16.88
2018-07-13T01:58:15.745Z,16.85
2018-07-13T01:59:14.993Z,16.84
2018-07-13T02:00:14.971Z,16.80
2018-07-13T02:01:14.946Z,16.80
2018-07-13T02:02:14.968Z,16.73
2018-07-13T02:03:15.754Z,16.70
2018-07-13T02:04:14.880Z,16.72
2018-07-13T02:05:14.846Z,16.74
2018-07-13T02:06:15.321Z,16.69
2018-07-13T02:07:14.797Z,16.74
2018-07-13T02:08:15.746Z,16.74
2018-07-13T02:09:14.754Z,16.73
2018-07-13T02:10:14.724Z,16.67
2018-07-13T02:11:14.744Z,16.55
2018-07-13T02:12:15.654Z,16.49
2018-07-13T02:13:14.652Z,16.42
2018-07-13T02:14:14.631Z,16.37
2018-07-13T02:15:14.599Z,16.36
2018-07-13T02:16:15.260Z,16.29
2018-07-13T02:17:14.607Z,16.32
2018-07-13T02:18:14.526Z,16.26
2018-07-13T02:19:14.805Z,16.18
2018-07-13T02:20:14.481Z,16.21
2018-07-13T02:21:14.457Z,16.16
2018-07-13T02:22:15.254Z,16.21
2018-07-13T02:23:14.445Z,16.10
2018-07-13T02:24:14.377Z,16.16
2018-07-13T02:25:14.820Z,16.10
2018-07-13T02:26:14.329Z,15.96
2018-07-13T02:27:14.306Z,15.93
2018-07-13T02:28:15.254Z,15.93
2018-07-13T02:29:14.253Z,15.89
2018-07-13T02:30:14.405Z,15.93
2018-07-13T02:31:14.204Z,15.80
2018-07-13T02:32:14.752Z,15.74
2018-07-13T02:33:14.155Z,15.68
2018-07-13T02:34:14.128Z,15.70
2018-07-13T02:35:14.319Z,15.68
2018-07-13T02:36:14.122Z,15.67
2018-07-13T02:37:14.756Z,15.56
2018-07-13T02:38:14.028Z,15.62
2018-07-13T02:39:14.138Z,15.59
2018-07-13T02:40:14.757Z,15.59
2018-07-13T02:41:13.994Z,15.56
2018-07-13T02:42:13.925Z,15.59
2018-07-13T02:43:14.753Z,15.47
2018-07-13T02:44:13.874Z,15.41
2018-07-13T02:45:13.853Z,15.43
2018-07-13T02:46:14.309Z,15.30
2018-07-13T02:47:13.797Z,15.35
2018-07-13T02:48:13.779Z,15.40
2018-07-13T02:49:14.258Z,15.40
2018-07-13T02:50:13.764Z,15.38
2018-07-13T02:51:13.823Z,15.27
2018-07-13T02:52:13.676Z,15.31
2018-07-13T02:53:13.663Z,15.30
2018-07-13T02:54:14.261Z,15.31
2018-07-13T02:55:13.639Z,15.30
2018-07-13T02:56:14.259Z,15.33
2018-07-13T02:57:13.587Z,15.31
2018-07-13T02:58:13.520Z,15.27
2018-07-13T02:59:13.493Z,15.37
2018-07-13T03:00:13.480Z,15.37
2018-07-13T03:01:13.788Z,15.38
2018-07-13T03:02:13.416Z,15.38
2018-07-13T03:03:14.259Z,15.33
2018-07-13T03:04:13.362Z,15.34
2018-07-13T03:05:13.385Z,15.34
2018-07-13T03:06:13.356Z,15.43
2018-07-13T03:07:14.258Z,15.40
2018-07-13T03:08:13.262Z,15.38
2018-07-13T03:09:13.312Z,15.30
2018-07-13T03:10:13.268Z,15.34
2018-07-13T03:11:13.229Z,15.41
2018-07-13T03:12:13.768Z,15.38
2018-07-13T03:13:13.178Z,15.47
2018-07-13T03:14:13.315Z,15.45
2018-07-13T03:15:13.083Z,15.60
2018-07-13T03:16:13.313Z,15.52
2018-07-13T03:17:13.031Z,15.59
2018-07-13T03:18:13.060Z,15.62
2018-07-13T03:19:12.978Z,15.74
2018-07-13T03:20:12.953Z,15.71
2018-07-13T03:21:12.992Z,15.74
2018-07-13T03:22:12.960Z,15.80
2018-07-13T03:23:13.327Z,15.80
2018-07-13T03:24:12.853Z,15.88
2018-07-13T03:25:13.761Z,15.88
2018-07-13T03:26:12.812Z,15.86
2018-07-13T03:27:12.777Z,15.99
2018-07-13T03:28:12.818Z,15.99
2018-07-13T03:29:12.721Z,15.99
2018-07-13T03:30:13.671Z,15.98
2018-07-13T03:31:12.799Z,16.02
2018-07-13T03:32:12.654Z,16.07
2018-07-13T03:33:13.266Z,16.06
2018-07-13T03:34:12.598Z,16.16
2018-07-13T03:35:12.625Z,16.10
2018-07-13T03:36:12.539Z,16.06
2018-07-13T03:37:12.824Z,16.10
2018-07-13T03:38:12.490Z,16.16
2018-07-13T03:39:12.463Z,16.16
2018-07-13T03:40:13.268Z,16.07
2018-07-13T03:41:12.416Z,16.21
2018-07-13T03:42:12.448Z,16.17
2018-07-13T03:43:13.266Z,16.07
2018-07-13T03:44:12.336Z,16.21
2018-07-13T03:45:13.267Z,16.07
2018-07-13T03:46:12.295Z,16.10
2018-07-13T03:47:12.307Z,16.11
2018-07-13T03:48:12.236Z,16.14
2018-07-13T03:49:12.770Z,16.17
2018-07-13T03:50:12.182Z,16.16
2018-07-13T03:51:12.162Z,16.21
2018-07-13T03:52:12.328Z,16.27
2018-07-13T03:53:12.113Z,16.29
2018-07-13T03:54:12.099Z,16.32
2018-07-13T03:55:12.060Z,16.33
2018-07-13T03:56:12.770Z,16.32
2018-07-13T03:57:12.060Z,16.40
2018-07-13T03:58:11.994Z,16.52
2018-07-13T03:59:12.768Z,16.51
2018-07-13T04:00:11.944Z,16.55
2018-07-13T04:01:12.774Z,16.65
2018-07-13T04:02:11.923Z,16.63
2018-07-13T04:03:11.908Z,16.69
2018-07-13T04:04:11.832Z,16.76
2018-07-13T04:05:12.784Z,16.72
2018-07-13T04:06:11.780Z,16.73
2018-07-13T04:07:11.839Z,16.74
2018-07-13T04:08:11.841Z,16.88
2018-07-13T04:09:11.705Z,16.97
2018-07-13T04:10:12.283Z,17.12
2018-07-13T04:11:11.658Z,17.15
2018-07-13T04:12:11.630Z,17.07
2018-07-13T04:13:11.664Z,17.10
2018-07-13T04:14:11.580Z,17.02
2018-07-13T04:15:12.290Z,17.10
2018-07-13T04:16:11.528Z,17.02
2018-07-13T04:17:11.509Z,17.02
2018-07-13T04:18:11.519Z,17.03
2018-07-13T04:19:12.273Z,16.99
2018-07-13T04:20:11.473Z,17.07
2018-07-13T04:21:11.412Z,17.07
2018-07-13T04:22:11.393Z,17.06
2018-07-13T04:23:12.272Z,17.30
2018-07-13T04:24:11.385Z,17.28
2018-07-13T04:25:11.306Z,17.38
2018-07-13T04:26:11.282Z,17.54
2018-07-13T04:27:11.775Z,17.50
2018-07-13T04:28:11.236Z,17.50
2018-07-13T04:29:11.251Z,17.80
2018-07-13T04:30:11.341Z,18.11
2018-07-13T04:31:11.163Z,18.23
2018-07-13T04:32:11.145Z,18.20
2018-07-13T04:33:11.111Z,18.21
2018-07-13T04:34:11.191Z,18.14
2018-07-13T04:35:11.068Z,18.08
2018-07-13T04:36:11.048Z,18.10
2018-07-13T04:37:11.016Z,18.02
2018-07-13T04:38:11.777Z,17.95
2018-07-13T04:39:11.011Z,17.86
2018-07-13T04:40:10.986Z,17.83
2018-07-13T04:41:10.994Z,17.77
2018-07-13T04:42:11.777Z,17.80
2018-07-13T04:43:10.872Z,17.81
2018-07-13T04:44:10.896Z,17.83
2018-07-13T04:45:10.832Z,17.81
2018-07-13T04:46:10.801Z,17.96
2018-07-13T04:47:10.776Z,17.83
2018-07-13T04:48:10.752Z,17.94
2018-07-13T04:49:10.770Z,17.88
2018-07-13T04:50:10.880Z,18.03
2018-07-13T04:51:10.681Z,18.03
2018-07-13T04:52:10.659Z,18.06
2018-07-13T04:53:10.647Z,17.99
2018-07-13T04:54:10.611Z,18.02
2018-07-13T04:55:10.626Z,18.02
2018-07-13T04:56:10.564Z,17.99
2018-07-13T04:57:10.556Z,18.03
2018-07-13T04:58:10.513Z,18.03
2018-07-13T04:59:10.488Z,18.02
2018-07-13T05:00:10.848Z,17.88
2018-07-13T05:01:10.445Z,17.96
2018-07-13T05:02:10.459Z,18.01
2018-07-13T05:03:10.400Z,17.98
2018-07-13T05:04:10.369Z,17.96
2018-07-13T05:05:11.288Z,18.02
2018-07-13T05:06:10.330Z,18.02
2018-07-13T05:07:10.355Z,18.08
2018-07-13T05:08:10.275Z,18.19
2018-07-13T05:09:10.256Z,18.29
2018-07-13T05:10:10.787Z,18.26
2018-07-13T05:11:10.213Z,18.26
2018-07-13T05:12:10.222Z,18.19
2018-07-13T05:13:10.175Z,18.39
2018-07-13T05:14:10.131Z,18.31
2018-07-13T05:15:10.785Z,18.36
2018-07-13T05:16:10.131Z,18.42
2018-07-13T05:17:10.693Z,18.50
2018-07-13T05:18:10.037Z,18.50
2018-07-13T05:19:10.035Z,18.47
2018-07-13T05:20:10.365Z,18.50
2018-07-13T05:21:10.030Z,18.59
2018-07-13T05:22:09.989Z,18.50
2018-07-13T05:23:10.795Z,18.50
2018-07-13T05:24:09.896Z,18.53
2018-07-13T05:25:09.874Z,18.50
2018-07-13T05:26:09.893Z,18.65
2018-07-13T05:27:12.791Z,18.61
2018-07-13T05:28:09.806Z,18.63
2018-07-13T05:29:09.820Z,18.59
2018-07-13T05:30:09.758Z,18.57
2018-07-13T05:31:10.289Z,18.61
2018-07-13T05:32:09.766Z,18.69
2018-07-13T05:33:09.683Z,18.65
2018-07-13T05:34:09.667Z,18.76
2018-07-13T05:35:09.637Z,18.72
2018-07-13T05:36:09.613Z,18.76
2018-07-13T05:37:09.672Z,18.76
2018-07-13T05:38:09.575Z,18.78
2018-07-13T05:39:09.545Z,18.78
2018-07-13T05:40:09.578Z,18.72
2018-07-13T05:41:09.497Z,18.74
2018-07-13T05:42:09.490Z,18.79
2018-07-13T05:43:09.498Z,18.82
2018-07-13T05:44:09.431Z,18.76
2018-07-13T05:45:09.405Z,18.78
2018-07-13T05:46:09.381Z,18.76
2018-07-13T05:47:09.360Z,18.81
2018-07-13T05:48:09.380Z,18.84
2018-07-13T05:49:10.292Z,18.75
2018-07-13T05:50:10.202Z,18.78
2018-07-13T05:51:09.263Z,18.81
2018-07-13T05:52:09.245Z,18.74
2018-07-13T05:53:09.262Z,18.86
2018-07-13T05:54:09.238Z,18.76
2018-07-13T05:55:09.171Z,18.79
2018-07-13T05:56:09.151Z,18.75
2018-07-13T05:57:09.179Z,18.81
2018-07-13T05:58:09.102Z,18.84
2018-07-13T05:59:09.077Z,18.89
2018-07-13T06:00:09.808Z,18.93
2018-07-13T06:01:09.032Z,18.99
2018-07-13T06:02:09.055Z,19.02
2018-07-13T06:03:09.003Z,19.09
2018-07-13T06:04:09.011Z,19.15
2018-07-13T06:05:08.939Z,19.06
2018-07-13T06:06:08.920Z,19.07
2018-07-13T06:07:08.896Z,18.99
2018-07-13T06:08:08.928Z,19.09
2018-07-13T06:09:08.866Z,19.13
2018-07-13T06:10:08.964Z,19.24
2018-07-13T06:11:08.801Z,19.28
2018-07-13T06:12:08.782Z,19.37
2018-07-13T06:13:08.809Z,19.38
2018-07-13T06:14:08.734Z,19.27
2018-07-13T06:15:08.811Z,19.24
2018-07-13T06:16:08.691Z,19.25
2018-07-13T06:17:08.682Z,19.31
2018-07-13T06:18:08.688Z,19.23
2018-07-13T06:19:08.620Z,19.32
2018-07-13T06:20:08.596Z,19.31
2018-07-13T06:21:09.303Z,19.27
2018-07-13T06:22:08.550Z,19.37
2018-07-13T06:23:08.571Z,19.42
2018-07-13T06:24:08.583Z,19.46
2018-07-13T06:25:09.306Z,19.38
2018-07-13T06:26:08.459Z,19.46
2018-07-13T06:27:08.439Z,19.52
2018-07-13T06:28:08.452Z,19.56
2018-07-13T06:29:08.452Z,19.61
2018-07-13T06:30:09.353Z,19.71
2018-07-13T06:31:08.361Z,19.85
2018-07-13T06:32:08.329Z,20.00
2018-07-13T06:33:08.301Z,19.97
2018-07-13T06:34:08.324Z,20.11
2018-07-13T06:35:08.806Z,20.01
2018-07-13T06:36:08.235Z,19.86
2018-07-13T06:37:08.213Z,19.80
2018-07-13T06:38:08.195Z,19.79
2018-07-13T06:39:08.361Z,19.80
2018-07-13T06:40:08.147Z,19.67
2018-07-13T06:41:08.125Z,19.71
2018-07-13T06:42:08.104Z,19.74
2018-07-13T06:43:08.083Z,19.63
2018-07-13T06:44:08.363Z,19.67
2018-07-13T06:45:08.049Z,19.64
2018-07-13T06:46:08.013Z,19.65
2018-07-13T06:47:07.989Z,19.71
2018-07-13T06:48:07.979Z,19.71
2018-07-13T06:49:08.366Z,19.80
2018-07-13T06:50:07.926Z,19.82
2018-07-13T06:51:07.906Z,19.90
2018-07-13T06:52:07.881Z,19.79
2018-07-13T06:53:07.861Z,19.80
2018-07-13T06:54:07.879Z,19.74
2018-07-13T06:55:08.312Z,19.72
2018-07-13T06:56:07.829Z,19.80
2018-07-13T06:57:07.777Z,19.82
2018-07-13T06:58:07.748Z,19.80
2018-07-13T06:59:07.726Z,19.93
2018-07-13T07:00:07.706Z,19.95
2018-07-13T07:01:07.725Z,20.02
2018-07-13T07:02:07.660Z,19.97
2018-07-13T07:03:07.636Z,20.10
2018-07-13T07:04:07.619Z,20.01
2018-07-13T07:05:07.592Z,20.04
2018-07-13T07:06:07.616Z,20.10
2018-07-13T07:07:07.545Z,20.22
2018-07-13T07:08:07.527Z,20.15
2018-07-13T07:09:07.554Z,20.12
2018-07-13T07:10:07.479Z,20.12
2018-07-13T07:11:07.456Z,20.18
2018-07-13T07:12:07.445Z,20.08
2018-07-13T07:13:07.414Z,20.10
2018-07-13T07:14:07.447Z,20.02
2018-07-13T07:15:08.284Z,19.97
2018-07-13T07:16:07.376Z,19.97
2018-07-13T07:17:07.368Z,20.00
2018-07-13T07:18:07.304Z,20.11
2018-07-13T07:19:07.291Z,20.25
2018-07-13T07:20:07.297Z,20.25
2018-07-13T07:21:07.281Z,20.35
2018-07-13T07:22:07.817Z,20.35
2018-07-13T07:23:07.195Z,20.26
2018-07-13T07:24:07.168Z,20.35
2018-07-13T07:25:07.145Z,20.27
2018-07-13T07:26:07.168Z,20.46
2018-07-13T07:27:07.114Z,20.46
2018-07-13T07:28:07.081Z,20.46
2018-07-13T07:29:07.057Z,20.42
2018-07-13T07:30:07.036Z,20.49
2018-07-13T07:31:07.064Z,20.48
2018-07-13T07:32:06.992Z,20.49
2018-07-13T07:33:06.970Z,20.56
2018-07-13T07:34:06.951Z,20.44
2018-07-13T07:35:06.925Z,20.46
2018-07-13T07:36:06.958Z,20.48
2018-07-13T07:37:06.882Z,20.49
2018-07-13T07:38:06.863Z,20.61
2018-07-13T07:39:06.838Z,20.66
2018-07-13T07:40:06.815Z,20.60
2018-07-13T07:41:06.850Z,20.61
2018-07-13T07:42:06.772Z,20.76
2018-07-13T07:43:06.750Z,20.85
2018-07-13T07:44:06.727Z,20.90
2018-07-13T07:45:06.708Z,20.97
2018-07-13T07:46:06.731Z,21.11
2018-07-13T07:47:06.664Z,21.21
2018-07-13T07:48:06.701Z,21.37
2018-07-13T07:49:06.625Z,21.45
2018-07-13T07:50:06.682Z,21.48
2018-07-13T07:51:06.581Z,21.52
2018-07-13T07:52:06.557Z,21.70
2018-07-13T07:53:06.584Z,21.70
2018-07-13T07:54:06.521Z,21.85
2018-07-13T07:55:06.551Z,21.92
2018-07-13T07:56:06.478Z,21.93
2018-07-13T07:57:06.477Z,21.97
2018-07-13T07:58:06.436Z,21.90
2018-07-13T07:59:07.329Z,21.82
2018-07-13T08:00:06.450Z,21.90
2018-07-13T08:01:06.373Z,21.70
2018-07-13T08:02:06.351Z,21.70
2018-07-13T08:03:06.328Z,21.56
2018-07-13T08:04:06.854Z,21.52
2018-07-13T08:05:06.336Z,21.49
2018-07-13T08:06:06.320Z,21.41
2018-07-13T08:07:06.704Z,21.40
2018-07-13T08:08:06.228Z,21.43
2018-07-13T08:09:06.830Z,21.41
2018-07-13T08:10:06.194Z,21.53
2018-07-13T08:11:06.203Z,21.56
2018-07-13T08:12:06.143Z,21.67
2018-07-13T08:13:06.127Z,21.70
2018-07-13T08:14:06.956Z,21.71
2018-07-13T08:15:06.110Z,21.89
2018-07-13T08:16:06.113Z,21.86
2018-07-13T08:17:06.091Z,21.93
2018-07-13T08:18:06.022Z,22.02
2018-07-13T08:19:06.002Z,22.15
2018-07-13T08:20:05.979Z,22.22
2018-07-13T08:21:06.021Z,22.27
2018-07-13T08:22:05.943Z,22.46
2018-07-13T08:23:05.923Z,22.51
2018-07-13T08:24:05.904Z,22.69
2018-07-13T08:25:05.881Z,22.76
2018-07-13T08:26:05.916Z,22.79
2018-07-13T08:27:05.847Z,22.73
2018-07-13T08:28:05.818Z,22.84
2018-07-13T08:29:05.802Z,23.04
2018-07-13T08:30:05.784Z,22.99
2018-07-13T08:31:05.807Z,23.18
2018-07-13T08:32:05.742Z,23.16
2018-07-13T08:33:05.724Z,23.09
2018-07-13T08:34:06.335Z,23.12
2018-07-13T08:35:05.690Z,23.09
2018-07-13T08:36:05.723Z,23.06
2018-07-13T08:37:05.647Z,22.84
2018-07-13T08:38:05.658Z,22.67
2018-07-13T08:39:05.635Z,22.61
2018-07-13T08:40:05.591Z,22.69
2018-07-13T08:41:05.619Z,22.55
2018-07-13T08:42:05.553Z,22.64
2018-07-13T08:43:05.528Z,22.63
2018-07-13T08:44:05.553Z,22.55
2018-07-13T08:45:05.492Z,22.42
2018-07-13T08:46:05.515Z,22.44
2018-07-13T08:47:05.449Z,22.54
2018-07-13T08:48:05.484Z,22.52
2018-07-13T08:49:05.409Z,22.64
2018-07-13T08:50:05.396Z,22.57
2018-07-13T08:51:05.370Z,22.42
2018-07-13T08:52:05.352Z,22.51
2018-07-13T08:53:05.391Z,22.55
2018-07-13T08:54:06.250Z,22.59
2018-07-13T08:55:05.304Z,22.55
2018-07-13T08:56:05.281Z,22.52
2018-07-13T08:57:05.253Z,22.64
2018-07-13T08:58:05.294Z,22.71
2018-07-13T08:59:05.213Z,22.60
2018-07-13T09:00:05.204Z,22.73
2018-07-13T09:01:05.177Z,22.82
2018-07-13T09:02:05.155Z,22.96
2018-07-13T09:03:05.190Z,22.97
2018-07-13T09:04:05.203Z,23.10
2018-07-13T09:05:05.097Z,23.40
2018-07-13T09:06:05.081Z,23.45
2018-07-13T09:07:05.056Z,23.56
2018-07-13T09:08:05.102Z,23.52
2018-07-13T09:09:05.062Z,23.62
2018-07-13T09:10:05.000Z,23.62
2018-07-13T09:11:04.979Z,23.63
2018-07-13T09:12:04.959Z,23.75
2018-07-13T09:13:04.950Z,23.79
2018-07-13T09:14:05.058Z,23.79
2018-07-13T09:15:04.949Z,23.77
2018-07-13T09:16:04.883Z,23.74
2018-07-13T09:17:04.862Z,23.77
2018-07-13T09:18:04.845Z,23.77
2018-07-13T09:19:04.888Z,23.82
2018-07-13T09:20:04.810Z,23.93
2018-07-13T09:21:04.790Z,23.82
2018-07-13T09:22:04.794Z,23.66
2018-07-13T09:23:04.752Z,23.53
2018-07-13T09:24:04.818Z,23.70
2018-07-13T09:25:04.716Z,23.50
2018-07-13T09:26:04.691Z,23.29
2018-07-13T09:27:04.672Z,23.18
2018-07-13T09:28:04.748Z,23.19
2018-07-13T09:29:04.687Z,23.22
2018-07-13T09:30:04.620Z,23.34
2018-07-13T09:31:04.620Z,23.24
2018-07-13T09:32:04.577Z,23.34
2018-07-13T09:33:04.562Z,23.45
2018-07-13T09:34:04.585Z,23.40
2018-07-13T09:35:04.549Z,23.26
2018-07-13T09:36:04.549Z,23.34
2018-07-13T09:37:04.481Z,23.44
2018-07-13T09:38:04.492Z,23.52
2018-07-13T09:39:04.447Z,23.57
2018-07-13T09:40:05.359Z,23.62
2018-07-13T09:41:04.448Z,23.53
2018-07-13T09:42:04.384Z,23.40
2018-07-13T09:43:04.373Z,23.29
2018-07-13T09:44:04.341Z,23.24
2018-07-13T09:45:04.330Z,23.29
2018-07-13T09:46:04.372Z,23.29
2018-07-13T09:47:04.325Z,23.22
2018-07-13T09:48:04.267Z,23.26
2018-07-13T09:49:04.249Z,23.19
2018-07-13T09:50:04.226Z,23.25
2018-07-13T09:51:04.265Z,23.29
2018-07-13T09:52:04.184Z,23.22
2018-07-13T09:53:04.167Z,23.35
2018-07-13T09:54:04.180Z,23.52
2018-07-13T09:55:04.124Z,23.34
2018-07-13T09:56:04.154Z,23.45
2018-07-13T09:57:04.148Z,23.25
2018-07-13T09:58:04.076Z,23.35
2018-07-13T09:59:04.045Z,23.28
2018-07-13T10:00:04.046Z,23.35
2018-07-13T10:01:04.011Z,23.35
2018-07-13T10:02:04.029Z,23.40
2018-07-13T10:03:04.010Z,23.19
2018-07-13T10:04:03.947Z,23.26
2018-07-13T10:05:03.986Z,23.38
2018-07-13T10:06:03.906Z,23.29
2018-07-13T10:07:03.885Z,23.34
2018-07-13T10:08:03.907Z,23.25
2018-07-13T10:09:03.848Z,23.21
2018-07-13T10:10:03.825Z,23.21
2018-07-13T10:11:03.809Z,23.06
2018-07-13T10:12:03.786Z,23.04
2018-07-13T10:13:03.823Z,23.04
2018-07-13T10:14:03.744Z,23.18
2018-07-13T10:15:03.737Z,23.24
2018-07-13T10:16:03.704Z,23.40
2018-07-13T10:17:03.692Z,23.34
2018-07-13T10:18:03.704Z,23.32
2018-07-13T10:19:03.648Z,23.42
2018-07-13T10:20:03.673Z,23.48
2018-07-13T10:21:03.601Z,23.47
2018-07-13T10:22:03.587Z,23.25
2018-07-13T10:23:03.557Z,23.44
2018-07-13T10:24:03.541Z,23.37
2018-07-13T10:25:03.566Z,23.38
2018-07-13T10:26:03.501Z,23.45
2018-07-13T10:27:03.479Z,23.63
2018-07-13T10:28:03.460Z,23.50
2018-07-13T10:29:03.450Z,23.56
2018-07-13T10:30:03.463Z,23.47
2018-07-13T10:31:03.401Z,23.55
2018-07-13T10:32:03.377Z,23.62
2018-07-13T10:33:03.360Z,23.62
2018-07-13T10:34:03.341Z,23.64
2018-07-13T10:35:03.364Z,23.59
2018-07-13T10:36:03.305Z,23.74
2018-07-13T10:37:03.292Z,23.79
2018-07-13T10:38:03.270Z,23.81
2018-07-13T10:39:03.244Z,23.85
2018-07-13T10:40:03.259Z,23.81
2018-07-13T10:41:03.206Z,23.66
2018-07-13T10:42:03.181Z,23.64
2018-07-13T10:43:03.171Z,23.66
2018-07-13T10:44:03.138Z,23.71
2018-07-13T10:45:03.164Z,23.75
2018-07-13T10:46:03.152Z,23.82
2018-07-13T10:47:03.080Z,23.89
2018-07-13T10:48:03.062Z,23.93
2018-07-13T10:49:03.040Z,24.03
2018-07-13T10:50:03.026Z,23.96
2018-07-13T10:51:03.045Z,24.08
2018-07-13T10:52:02.981Z,24.04
2018-07-13T10:53:03.879Z,24.08
2018-07-13T10:54:02.988Z,24.12
2018-07-13T10:55:02.919Z,24.14
2018-07-13T10:56:02.944Z,24.26
2018-07-13T10:57:02.944Z,24.36
2018-07-13T10:58:03.379Z,24.27
2018-07-13T10:59:02.841Z,24.24
2018-07-13T11:00:02.865Z,24.34
2018-07-13T11:01:02.801Z,24.34
2018-07-13T11:02:02.827Z,24.33
2018-07-13T11:03:03.392Z,24.36
2018-07-13T11:04:02.742Z,24.37
2018-07-13T11:05:02.721Z,24.34
2018-07-13T11:06:02.703Z,24.27
2018-07-13T11:07:02.733Z,24.19
2018-07-13T11:08:02.683Z,24.26
2018-07-13T11:09:02.647Z,24.18
2018-07-13T11:10:02.640Z,24.11
2018-07-13T11:11:02.604Z,24.22
2018-07-13T11:12:02.643Z,24.17
2018-07-13T11:13:02.572Z,24.19
2018-07-13T11:14:02.669Z,24.24
2018-07-13T11:15:02.542Z,24.33
2018-07-13T11:16:02.512Z,24.40
2018-07-13T11:17:02.554Z,24.49
2018-07-13T11:18:02.470Z,24.48
2018-07-13T11:19:02.450Z,24.54
2018-07-13T11:20:02.430Z,24.64
2018-07-13T11:21:02.409Z,24.64
2018-07-13T11:22:02.443Z,24.66
2018-07-13T11:23:02.370Z,24.67
2018-07-13T11:24:02.352Z,24.83
2018-07-13T11:25:02.329Z,24.80
2018-07-13T11:26:02.311Z,24.83
2018-07-13T11:27:02.345Z,24.92
2018-07-13T11:28:02.270Z,25.04
2018-07-13T11:29:02.251Z,25.11
2018-07-13T11:30:02.241Z,25.24
2018-07-13T11:31:02.246Z,25.20
2018-07-13T11:32:02.254Z,25.26
2018-07-13T11:33:02.174Z,25.34
2018-07-13T11:34:02.167Z,25.26
2018-07-13T11:35:02.132Z,25.30
2018-07-13T11:36:02.119Z,25.26
2018-07-13T11:37:02.301Z,25.32
2018-07-13T11:38:02.084Z,25.33
2018-07-13T11:39:02.081Z,25.30
2018-07-13T11:40:02.088Z,25.27
2018-07-13T11:41:02.021Z,25.38
2018-07-13T11:42:02.004Z,25.39
2018-07-13T11:43:01.983Z,25.48
2018-07-13T11:44:02.066Z,25.34
2018-07-13T11:45:01.944Z,25.47
2018-07-13T11:46:01.924Z,25.48
2018-07-13T11:47:01.949Z,25.63
2018-07-13T11:48:01.884Z,25.64
2018-07-13T11:49:01.870Z,25.64
2018-07-13T11:50:01.843Z,25.69
2018-07-13T11:51:01.826Z,25.59
2018-07-13T11:52:01.865Z,25.51
2018-07-13T11:53:01.787Z,25.49
2018-07-13T11:54:01.770Z,25.52
2018-07-13T11:55:01.750Z,25.67
2018-07-13T11:56:01.732Z,25.63
2018-07-13T11:57:01.752Z,25.67
2018-07-13T11:58:01.692Z,25.64
2018-07-13T11:59:01.696Z,25.71
2018-07-13T12:00:01.654Z,25.70
2018-07-13T12:01:01.634Z,25.57
2018-07-13T12:02:01.663Z,25.44
2018-07-13T12:03:01.599Z,25.49
2018-07-13T12:04:01.579Z,25.63
2018-07-13T12:05:01.564Z,25.60
2018-07-13T12:06:01.585Z,25.62
2018-07-13T12:07:01.569Z,25.64
2018-07-13T12:08:01.575Z,25.60
2018-07-13T12:09:01.485Z,25.69
2018-07-13T12:10:01.474Z,25.56
2018-07-13T12:11:01.446Z,25.52
2018-07-13T12:12:01.425Z,25.62
2018-07-13T12:13:01.457Z,25.67
2018-07-13T12:14:01.389Z,25.75
2018-07-13T12:15:01.385Z,25.66
2018-07-13T12:16:01.353Z,25.74
2018-07-13T12:17:01.380Z,25.84
2018-07-13T12:18:01.314Z,25.81
2018-07-13T12:19:01.292Z,25.88
2018-07-13T12:20:01.276Z,25.88
2018-07-13T12:21:01.266Z,25.91
2018-07-13T12:22:01.285Z,25.85
2018-07-13T12:23:01.217Z,25.76
2018-07-13T12:24:01.247Z,25.69
2018-07-13T12:25:01.230Z,25.76
2018-07-13T12:26:01.182Z,25.70
2018-07-13T12:27:01.217Z,25.67
2018-07-13T12:28:01.125Z,25.62
2018-07-13T12:29:01.102Z,25.63
2018-07-13T12:30:01.144Z,25.66
2018-07-13T12:31:01.074Z,25.59
2018-07-13T12:32:01.052Z,25.64
2018-07-13T12:33:01.077Z,25.63
2018-07-13T12:34:01.007Z,25.71
2018-07-13T12:35:01.043Z,25.78
2018-07-13T12:36:00.985Z,25.85
2018-07-13T12:37:00.951Z,26.01
2018-07-13T12:38:00.989Z,25.94
2018-07-13T12:39:00.918Z,26.04
2018-07-13T12:40:00.938Z,26.06
2018-07-13T12:41:00.965Z,26.16
2018-07-13T12:42:00.856Z,26.30
2018-07-13T12:43:00.839Z,26.35
2018-07-13T12:44:00.818Z,26.41
2018-07-13T12:45:00.845Z,26.41
2018-07-13T12:46:00.810Z,26.52
2018-07-13T12:47:00.811Z,26.53
2018-07-13T12:48:00.743Z,26.60
2018-07-13T12:49:00.749Z,26.54
2018-07-13T12:50:00.707Z,26.53
2018-07-13T12:51:01.413Z,26.56
2018-07-13T12:52:00.722Z,26.57